sensor_id;sensor_type;location;lat;lon;timestamp;P1;durP1;ratioP1;P2;durP2;ratioP2
1567;SDS011;777;47.156;8.326;2023-05-13T00:01:41;7.65;;;6.07;;
1567;SDS011;777;47.156;8.326;2023-05-13T00:04:09;6.80;;;6.15;;
1567;SDS011;777;47.156;8.326;2023-05-13T00:06:36;7.93;;;6.15;;
1567;SDS011;777;47.156;8.326;2023-05-13T00:09:03;6.60;;;6.00;;
1567;SDS011;777;47.156;8.326;2023-05-13T00:11:30;10.73;;;6.30;;
1567;SDS011;777;47.156;8.326;2023-05-13T00:13:57;7.85;;;6.20;;
1567;SDS011;777;47.156;8.326;2023-05-13T00:16:25;8.25;;;6.82;;
1567;SDS011;777;47.156;8.326;2023-05-13T00:18:53;7.53;;;6.82;;
1567;SDS011;777;47.156;8.326;2023-05-13T00:21:20;9.18;;;7.25;;
1567;SDS011;777;47.156;8.326;2023-05-13T00:23:48;7.32;;;6.63;;
1567;SDS011;777;47.156;8.326;2023-05-13T00:26:15;7.65;;;6.95;;
1567;SDS011;777;47.156;8.326;2023-05-13T00:28:44;10.60;;;6.63;;
1567;SDS011;777;47.156;8.326;2023-05-13T00:31:11;7.85;;;7.15;;
1567;SDS011;777;47.156;8.326;2023-05-13T00:33:40;7.75;;;6.35;;
1567;SDS011;777;47.156;8.326;2023-05-13T00:36:07;8.30;;;6.82;;
1567;SDS011;777;47.156;8.326;2023-05-13T00:38:36;8.40;;;6.60;;
1567;SDS011;777;47.156;8.326;2023-05-13T00:41:03;8.27;;;6.85;;
1567;SDS011;777;47.156;8.326;2023-05-13T00:43:31;8.25;;;7.05;;
1567;SDS011;777;47.156;8.326;2023-05-13T00:45:58;7.38;;;6.68;;
1567;SDS011;777;47.156;8.326;2023-05-13T00:48:25;7.95;;;6.65;;
1567;SDS011;777;47.156;8.326;2023-05-13T00:50:54;7.10;;;6.40;;
1567;SDS011;777;47.156;8.326;2023-05-13T00:53:21;7.43;;;6.70;;
1567;SDS011;777;47.156;8.326;2023-05-13T00:55:48;6.93;;;5.97;;
1567;SDS011;777;47.156;8.326;2023-05-13T00:58:15;6.97;;;6.22;;
1567;SDS011;777;47.156;8.326;2023-05-13T01:00:44;6.97;;;6.28;;
1567;SDS011;777;47.156;8.326;2023-05-13T01:03:18;8.80;;;7.03;;
1567;SDS011;777;47.156;8.326;2023-05-13T01:06:04;9.40;;;6.78;;
1567;SDS011;777;47.156;8.326;2023-05-13T01:08:42;7.43;;;6.72;;
1567;SDS011;777;47.156;8.326;2023-05-13T01:11:14;7.55;;;6.68;;
1567;SDS011;777;47.156;8.326;2023-05-13T01:13:47;9.90;;;6.90;;
1567;SDS011;777;47.156;8.326;2023-05-13T01:16:23;9.43;;;6.88;;
1567;SDS011;777;47.156;8.326;2023-05-13T01:18:55;9.45;;;7.10;;
1567;SDS011;777;47.156;8.326;2023-05-13T01:21:25;8.73;;;7.88;;
1567;SDS011;777;47.156;8.326;2023-05-13T01:23:53;8.30;;;7.50;;
1567;SDS011;777;47.156;8.326;2023-05-13T01:26:21;8.18;;;7.38;;
1567;SDS011;777;47.156;8.326;2023-05-13T01:28:51;7.63;;;6.88;;
1567;SDS011;777;47.156;8.326;2023-05-13T01:31:18;7.93;;;7.13;;
1567;SDS011;777;47.156;8.326;2023-05-13T01:33:46;7.38;;;6.68;;
1567;SDS011;777;47.156;8.326;2023-05-13T01:36:15;10.70;;;7.32;;
1567;SDS011;777;47.156;8.326;2023-05-13T01:38:44;8.30;;;7.50;;
1567;SDS011;777;47.156;8.326;2023-05-13T01:41:12;7.93;;;7.00;;
1567;SDS011;777;47.156;8.326;2023-05-13T01:43:40;8.45;;;7.60;;
1567;SDS011;777;47.156;8.326;2023-05-13T01:46:10;8.27;;;7.47;;
1567;SDS011;777;47.156;8.326;2023-05-13T01:48:37;10.38;;;8.02;;
1567;SDS011;777;47.156;8.326;2023-05-13T01:51:05;8.45;;;7.30;;
1567;SDS011;777;47.156;8.326;2023-05-13T01:53:32;8.48;;;7.65;;
1567;SDS011;777;47.156;8.326;2023-05-13T01:56:00;10.30;;;7.05;;
1567;SDS011;777;47.156;8.326;2023-05-13T01:58:27;7.68;;;6.88;;
1567;SDS011;777;47.156;8.326;2023-05-13T02:00:54;10.27;;;7.78;;
1567;SDS011;777;47.156;8.326;2023-05-13T02:03:21;8.82;;;7.93;;
1567;SDS011;777;47.156;8.326;2023-05-13T02:05:48;9.43;;;8.10;;
1567;SDS011;777;47.156;8.326;2023-05-13T02:08:16;8.73;;;7.90;;
1567;SDS011;777;47.156;8.326;2023-05-13T02:10:43;8.43;;;7.45;;
1567;SDS011;777;47.156;8.326;2023-05-13T02:13:11;8.35;;;7.45;;
1567;SDS011;777;47.156;8.326;2023-05-13T02:15:38;9.73;;;8.73;;
1567;SDS011;777;47.156;8.326;2023-05-13T02:18:05;9.00;;;8.20;;
1567;SDS011;777;47.156;8.326;2023-05-13T02:20:32;8.75;;;7.90;;
1567;SDS011;777;47.156;8.326;2023-05-13T02:22:59;9.20;;;8.07;;
1567;SDS011;777;47.156;8.326;2023-05-13T02:25:26;9.82;;;7.55;;
1567;SDS011;777;47.156;8.326;2023-05-13T02:27:53;9.00;;;7.68;;
1567;SDS011;777;47.156;8.326;2023-05-13T02:30:22;8.85;;;7.95;;
1567;SDS011;777;47.156;8.326;2023-05-13T02:32:51;8.82;;;7.93;;
1567;SDS011;777;47.156;8.326;2023-05-13T02:35:18;8.60;;;7.80;;
1567;SDS011;777;47.156;8.326;2023-05-13T02:37:46;9.15;;;8.30;;
1567;SDS011;777;47.156;8.326;2023-05-13T02:40:14;9.85;;;8.85;;
1567;SDS011;777;47.156;8.326;2023-05-13T02:42:43;9.88;;;8.63;;
1567;SDS011;777;47.156;8.326;2023-05-13T02:45:12;10.63;;;9.52;;
1567;SDS011;777;47.156;8.326;2023-05-13T02:47:43;10.02;;;9.02;;
1567;SDS011;777;47.156;8.326;2023-05-13T02:50:10;10.70;;;9.70;;
1567;SDS011;777;47.156;8.326;2023-05-13T02:52:38;10.10;;;9.10;;
1567;SDS011;777;47.156;8.326;2023-05-13T02:55:06;10.52;;;9.45;;
1567;SDS011;777;47.156;8.326;2023-05-13T02:57:35;10.25;;;8.88;;
1567;SDS011;777;47.156;8.326;2023-05-13T03:00:03;9.98;;;9.02;;
1567;SDS011;777;47.156;8.326;2023-05-13T03:02:32;10.15;;;8.88;;
1567;SDS011;777;47.156;8.326;2023-05-13T03:05:01;10.65;;;9.55;;
1567;SDS011;777;47.156;8.326;2023-05-13T03:07:28;10.90;;;9.27;;
1567;SDS011;777;47.156;8.326;2023-05-13T03:09:57;9.95;;;8.57;;
1567;SDS011;777;47.156;8.326;2023-05-13T03:12:24;11.32;;;10.13;;
1567;SDS011;777;47.156;8.326;2023-05-13T03:14:51;10.85;;;9.63;;
1567;SDS011;777;47.156;8.326;2023-05-13T03:17:18;10.70;;;9.45;;
1567;SDS011;777;47.156;8.326;2023-05-13T03:19:45;10.50;;;9.20;;
1567;SDS011;777;47.156;8.326;2023-05-13T03:22:14;10.55;;;9.55;;
1567;SDS011;777;47.156;8.326;2023-05-13T03:24:41;11.25;;;10.13;;
1567;SDS011;777;47.156;8.326;2023-05-13T03:27:09;10.15;;;9.15;;
1567;SDS011;777;47.156;8.326;2023-05-13T03:29:37;10.80;;;9.75;;
1567;SDS011;777;47.156;8.326;2023-05-13T03:32:05;10.57;;;9.48;;
1567;SDS011;777;47.156;8.326;2023-05-13T03:34:33;11.05;;;9.95;;
1567;SDS011;777;47.156;8.326;2023-05-13T03:37:02;10.73;;;9.63;;
1567;SDS011;777;47.156;8.326;2023-05-13T03:39:32;10.75;;;9.65;;
1567;SDS011;777;47.156;8.326;2023-05-13T03:41:58;10.52;;;9.32;;
1567;SDS011;777;47.156;8.326;2023-05-13T03:44:27;10.52;;;9.52;;
1567;SDS011;777;47.156;8.326;2023-05-13T03:46:54;10.93;;;9.32;;
1567;SDS011;777;47.156;8.326;2023-05-13T03:49:21;10.85;;;9.85;;
1567;SDS011;777;47.156;8.326;2023-05-13T03:51:48;10.00;;;9.07;;
1567;SDS011;777;47.156;8.326;2023-05-13T03:54:15;12.98;;;10.10;;
1567;SDS011;777;47.156;8.326;2023-05-13T03:56:45;11.43;;;10.32;;
1567;SDS011;777;47.156;8.326;2023-05-13T03:59:12;11.52;;;10.40;;
1567;SDS011;777;47.156;8.326;2023-05-13T04:01:39;10.85;;;9.75;;
1567;SDS011;777;47.156;8.326;2023-05-13T04:04:07;11.18;;;10.07;;
1567;SDS011;777;47.156;8.326;2023-05-13T04:06:34;11.35;;;10.25;;
1567;SDS011;777;47.156;8.326;2023-05-13T04:09:01;11.02;;;10.02;;
1567;SDS011;777;47.156;8.326;2023-05-13T04:11:30;11.23;;;10.13;;
1567;SDS011;777;47.156;8.326;2023-05-13T04:13:58;10.73;;;9.63;;
1567;SDS011;777;47.156;8.326;2023-05-13T04:16:25;12.15;;;9.35;;
1567;SDS011;777;47.156;8.326;2023-05-13T04:18:53;10.65;;;9.55;;
1567;SDS011;777;47.156;8.326;2023-05-13T04:21:20;11.38;;;10.23;;
1567;SDS011;777;47.156;8.326;2023-05-13T04:23:47;10.52;;;9.52;;
1567;SDS011;777;47.156;8.326;2023-05-13T04:26:14;11.98;;;9.70;;
1567;SDS011;777;47.156;8.326;2023-05-13T04:28:42;10.80;;;9.75;;
1567;SDS011;777;47.156;8.326;2023-05-13T04:31:10;11.15;;;10.00;;
1567;SDS011;777;47.156;8.326;2023-05-13T04:33:37;10.40;;;9.40;;
1567;SDS011;777;47.156;8.326;2023-05-13T04:36:05;10.52;;;9.52;;
1567;SDS011;777;47.156;8.326;2023-05-13T04:38:33;11.48;;;10.48;;
1567;SDS011;777;47.156;8.326;2023-05-13T04:41:00;12.02;;;10.90;;
1567;SDS011;777;47.156;8.326;2023-05-13T04:43:34;11.27;;;10.25;;
1567;SDS011;777;47.156;8.326;2023-05-13T04:46:01;12.60;;;11.40;;
1567;SDS011;777;47.156;8.326;2023-05-13T04:48:30;12.75;;;11.43;;
1567;SDS011;777;47.156;8.326;2023-05-13T04:50:57;12.02;;;10.93;;
1567;SDS011;777;47.156;8.326;2023-05-13T04:53:25;14.82;;;11.80;;
1567;SDS011;777;47.156;8.326;2023-05-13T04:55:54;13.13;;;11.25;;
1567;SDS011;777;47.156;8.326;2023-05-13T04:58:27;12.30;;;11.07;;
1567;SDS011;777;47.156;8.326;2023-05-13T05:00:55;13.02;;;11.75;;
1567;SDS011;777;47.156;8.326;2023-05-13T05:03:22;12.57;;;11.35;;
1567;SDS011;777;47.156;8.326;2023-05-13T05:05:51;11.75;;;10.55;;
1567;SDS011;777;47.156;8.326;2023-05-13T05:08:19;12.13;;;10.95;;
1567;SDS011;777;47.156;8.326;2023-05-13T05:10:48;13.52;;;12.23;;
1567;SDS011;777;47.156;8.326;2023-05-13T05:13:15;13.55;;;11.68;;
1567;SDS011;777;47.156;8.326;2023-05-13T05:15:43;12.45;;;11.27;;
1567;SDS011;777;47.156;8.326;2023-05-13T05:18:11;14.15;;;12.75;;
1567;SDS011;777;47.156;8.326;2023-05-13T05:20:40;13.18;;;11.98;;
1567;SDS011;777;47.156;8.326;2023-05-13T05:23:14;13.23;;;11.95;;
1567;SDS011;777;47.156;8.326;2023-05-13T05:25:42;13.48;;;12.18;;
1567;SDS011;777;47.156;8.326;2023-05-13T05:28:09;13.07;;;11.77;;
1567;SDS011;777;47.156;8.326;2023-05-13T05:30:39;13.98;;;12.48;;
1567;SDS011;777;47.156;8.326;2023-05-13T05:33:14;13.52;;;12.23;;
1567;SDS011;777;47.156;8.326;2023-05-13T05:35:41;13.32;;;12.10;;
1567;SDS011;777;47.156;8.326;2023-05-13T05:38:12;13.98;;;12.73;;
1567;SDS011;777;47.156;8.326;2023-05-13T05:40:42;13.88;;;12.43;;
1567;SDS011;777;47.156;8.326;2023-05-13T05:43:10;14.18;;;12.85;;
1567;SDS011;777;47.156;8.326;2023-05-13T05:45:38;13.55;;;12.27;;
1567;SDS011;777;47.156;8.326;2023-05-13T05:48:07;13.07;;;11.77;;
1567;SDS011;777;47.156;8.326;2023-05-13T05:50:34;13.65;;;12.32;;
1567;SDS011;777;47.156;8.326;2023-05-13T05:53:04;12.75;;;11.55;;
1567;SDS011;777;47.156;8.326;2023-05-13T05:55:34;13.00;;;11.65;;
1567;SDS011;777;47.156;8.326;2023-05-13T05:58:03;14.25;;;12.80;;
1567;SDS011;777;47.156;8.326;2023-05-13T06:00:33;12.48;;;11.38;;
1567;SDS011;777;47.156;8.326;2023-05-13T06:03:00;11.98;;;10.90;;
1567;SDS011;777;47.156;8.326;2023-05-13T06:05:27;12.30;;;11.20;;
1567;SDS011;777;47.156;8.326;2023-05-13T06:07:55;12.15;;;11.02;;
1567;SDS011;777;47.156;8.326;2023-05-13T06:10:22;12.25;;;11.15;;
1567;SDS011;777;47.156;8.326;2023-05-13T06:12:49;13.02;;;11.65;;
1567;SDS011;777;47.156;8.326;2023-05-13T06:15:17;12.18;;;11.07;;
1567;SDS011;777;47.156;8.326;2023-05-13T06:17:44;11.68;;;10.57;;
1567;SDS011;777;47.156;8.326;2023-05-13T06:20:11;11.23;;;10.10;;
1567;SDS011;777;47.156;8.326;2023-05-13T06:22:38;11.48;;;10.38;;
1567;SDS011;777;47.156;8.326;2023-05-13T06:25:06;11.45;;;10.23;;
1567;SDS011;777;47.156;8.326;2023-05-13T06:27:33;11.30;;;10.20;;
1567;SDS011;777;47.156;8.326;2023-05-13T06:30:00;11.52;;;10.32;;
1567;SDS011;777;47.156;8.326;2023-05-13T06:32:28;11.38;;;10.15;;
1567;SDS011;777;47.156;8.326;2023-05-13T06:34:55;13.90;;;10.07;;
1567;SDS011;777;47.156;8.326;2023-05-13T06:37:22;10.55;;;9.63;;
1567;SDS011;777;47.156;8.326;2023-05-13T06:39:49;9.70;;;8.80;;
1567;SDS011;777;47.156;8.326;2023-05-13T06:42:17;10.68;;;9.68;;
1567;SDS011;777;47.156;8.326;2023-05-13T06:44:52;11.30;;;9.60;;
1567;SDS011;777;47.156;8.326;2023-05-13T06:47:25;11.27;;;10.10;;
1567;SDS011;777;47.156;8.326;2023-05-13T06:49:54;10.02;;;9.05;;
1567;SDS011;777;47.156;8.326;2023-05-13T06:52:21;10.00;;;8.98;;
1567;SDS011;777;47.156;8.326;2023-05-13T06:54:48;10.57;;;9.48;;
1567;SDS011;777;47.156;8.326;2023-05-13T06:57:15;11.23;;;9.63;;
1567;SDS011;777;47.156;8.326;2023-05-13T06:59:43;10.02;;;8.95;;
1567;SDS011;777;47.156;8.326;2023-05-13T07:02:10;9.40;;;8.60;;
1567;SDS011;777;47.156;8.326;2023-05-13T07:04:37;10.32;;;9.32;;
1567;SDS011;777;47.156;8.326;2023-05-13T07:07:05;10.20;;;8.80;;
1567;SDS011;777;47.156;8.326;2023-05-13T07:09:32;9.35;;;8.45;;
1567;SDS011;777;47.156;8.326;2023-05-13T07:11:59;10.45;;;9.45;;
1567;SDS011;777;47.156;8.326;2023-05-13T07:14:26;9.77;;;8.88;;
1567;SDS011;777;47.156;8.326;2023-05-13T07:16:53;9.60;;;8.60;;
1567;SDS011;777;47.156;8.326;2023-05-13T07:19:20;8.77;;;7.97;;
1567;SDS011;777;47.156;8.326;2023-05-13T07:21:47;9.70;;;8.45;;
1567;SDS011;777;47.156;8.326;2023-05-13T07:24:15;10.45;;;8.50;;
1567;SDS011;777;47.156;8.326;2023-05-13T07:26:42;9.63;;;8.68;;
1567;SDS011;777;47.156;8.326;2023-05-13T07:29:09;8.95;;;8.15;;
1567;SDS011;777;47.156;8.326;2023-05-13T07:31:36;8.90;;;8.20;;
1567;SDS011;777;47.156;8.326;2023-05-13T07:34:03;9.13;;;8.30;;
1567;SDS011;777;47.156;8.326;2023-05-13T07:36:30;10.82;;;8.48;;
1567;SDS011;777;47.156;8.326;2023-05-13T07:38:57;8.50;;;7.70;;
1567;SDS011;777;47.156;8.326;2023-05-13T07:41:25;8.38;;;7.57;;
1567;SDS011;777;47.156;8.326;2023-05-13T07:43:52;8.38;;;7.65;;
1567;SDS011;777;47.156;8.326;2023-05-13T07:46:19;7.97;;;7.28;;
1567;SDS011;777;47.156;8.326;2023-05-13T07:48:46;10.45;;;8.02;;
1567;SDS011;777;47.156;8.326;2023-05-13T07:51:13;8.95;;;8.15;;
1567;SDS011;777;47.156;8.326;2023-05-13T07:53:42;9.52;;;8.65;;
1567;SDS011;777;47.156;8.326;2023-05-13T07:56:11;9.48;;;8.52;;
1567;SDS011;777;47.156;8.326;2023-05-13T07:58:39;9.82;;;8.82;;
1567;SDS011;777;47.156;8.326;2023-05-13T08:01:07;9.38;;;8.48;;
1567;SDS011;777;47.156;8.326;2023-05-13T08:03:34;11.20;;;8.45;;
1567;SDS011;777;47.156;8.326;2023-05-13T08:06:01;8.80;;;8.00;;
1567;SDS011;777;47.156;8.326;2023-05-13T08:08:28;9.07;;;8.18;;
1567;SDS011;777;47.156;8.326;2023-05-13T08:10:55;8.05;;;7.35;;
1567;SDS011;777;47.156;8.326;2023-05-13T08:13:21;8.63;;;7.53;;
1567;SDS011;777;47.156;8.326;2023-05-13T08:15:51;8.43;;;7.63;;
1567;SDS011;777;47.156;8.326;2023-05-13T08:18:18;8.13;;;7.43;;
1567;SDS011;777;47.156;8.326;2023-05-13T08:20:45;7.65;;;6.90;;
1567;SDS011;777;47.156;8.326;2023-05-13T08:23:12;8.48;;;6.80;;
1567;SDS011;777;47.156;8.326;2023-05-13T08:25:38;6.47;;;5.90;;
1567;SDS011;777;47.156;8.326;2023-05-13T08:28:05;7.97;;;6.75;;
1567;SDS011;777;47.156;8.326;2023-05-13T08:30:32;6.90;;;6.10;;
1567;SDS011;777;47.156;8.326;2023-05-13T08:33:01;7.65;;;6.35;;
1567;SDS011;777;47.156;8.326;2023-05-13T08:35:28;7.03;;;6.32;;
1567;SDS011;777;47.156;8.326;2023-05-13T08:37:56;6.25;;;5.63;;
1567;SDS011;777;47.156;8.326;2023-05-13T08:40:23;6.20;;;5.60;;
1567;SDS011;777;47.156;8.326;2023-05-13T08:42:50;6.50;;;5.82;;
1567;SDS011;777;47.156;8.326;2023-05-13T08:45:19;6.53;;;6.03;;
1567;SDS011;777;47.156;8.326;2023-05-13T08:47:49;6.55;;;5.38;;
1567;SDS011;777;47.156;8.326;2023-05-13T08:50:19;5.70;;;5.20;;
1567;SDS011;777;47.156;8.326;2023-05-13T08:52:48;6.07;;;5.47;;
1567;SDS011;777;47.156;8.326;2023-05-13T08:55:17;5.95;;;5.45;;
1567;SDS011;777;47.156;8.326;2023-05-13T08:57:44;6.95;;;5.22;;
1567;SDS011;777;47.156;8.326;2023-05-13T09:00:12;5.18;;;4.68;;
1567;SDS011;777;47.156;8.326;2023-05-13T09:02:41;6.65;;;5.30;;
1567;SDS011;777;47.156;8.326;2023-05-13T09:05:09;7.03;;;4.63;;
1567;SDS011;777;47.156;8.326;2023-05-13T09:07:38;5.28;;;4.88;;
1567;SDS011;777;47.156;8.326;2023-05-13T09:10:05;5.60;;;5.10;;
1567;SDS011;777;47.156;8.326;2023-05-13T09:12:47;5.03;;;4.13;;
1567;SDS011;777;47.156;8.326;2023-05-13T09:15:15;4.72;;;4.32;;
1567;SDS011;777;47.156;8.326;2023-05-13T09:17:44;4.55;;;4.15;;
1567;SDS011;777;47.156;8.326;2023-05-13T09:20:15;4.57;;;4.18;;
1567;SDS011;777;47.156;8.326;2023-05-13T09:22:47;4.68;;;4.20;;
1567;SDS011;777;47.156;8.326;2023-05-13T09:25:16;3.70;;;3.40;;
1567;SDS011;777;47.156;8.326;2023-05-13T09:27:45;5.80;;;3.35;;
1567;SDS011;777;47.156;8.326;2023-05-13T09:30:13;6.55;;;4.13;;
1567;SDS011;777;47.156;8.326;2023-05-13T09:32:40;4.10;;;3.70;;
1567;SDS011;777;47.156;8.326;2023-05-13T09:35:08;4.97;;;3.88;;
1567;SDS011;777;47.156;8.326;2023-05-13T09:37:37;4.82;;;3.83;;
1567;SDS011;777;47.156;8.326;2023-05-13T09:40:07;4.75;;;4.13;;
1567;SDS011;777;47.156;8.326;2023-05-13T09:42:39;5.07;;;4.57;;
1567;SDS011;777;47.156;8.326;2023-05-13T09:45:07;4.70;;;4.30;;
1567;SDS011;777;47.156;8.326;2023-05-13T09:47:36;4.25;;;3.85;;
1567;SDS011;777;47.156;8.326;2023-05-13T09:50:03;4.65;;;4.25;;
1567;SDS011;777;47.156;8.326;2023-05-13T09:52:32;3.70;;;3.40;;
1567;SDS011;777;47.156;8.326;2023-05-13T09:55:01;4.28;;;3.88;;
1567;SDS011;777;47.156;8.326;2023-05-13T09:57:31;4.60;;;3.70;;
1567;SDS011;777;47.156;8.326;2023-05-13T09:59:58;5.15;;;3.90;;
1567;SDS011;777;47.156;8.326;2023-05-13T10:02:25;5.05;;;3.75;;
1567;SDS011;777;47.156;8.326;2023-05-13T10:04:53;4.25;;;3.83;;
1567;SDS011;777;47.156;8.326;2023-05-13T10:07:21;3.50;;;3.20;;
1567;SDS011;777;47.156;8.326;2023-05-13T10:09:50;5.07;;;3.70;;
1567;SDS011;777;47.156;8.326;2023-05-13T10:12:19;4.55;;;3.60;;
1567;SDS011;777;47.156;8.326;2023-05-13T10:14:50;3.40;;;3.10;;
1567;SDS011;777;47.156;8.326;2023-05-13T10:17:18;5.68;;;3.40;;
1567;SDS011;777;47.156;8.326;2023-05-13T10:19:47;3.67;;;3.38;;
1567;SDS011;777;47.156;8.326;2023-05-13T10:22:15;4.43;;;4.03;;
1567;SDS011;777;47.156;8.326;2023-05-13T10:24:56;4.40;;;4.00;;
1567;SDS011;777;47.156;8.326;2023-05-13T10:27:25;3.75;;;3.42;;
1567;SDS011;777;47.156;8.326;2023-05-13T10:29:55;7.00;;;3.88;;
1567;SDS011;777;47.156;8.326;2023-05-13T10:32:23;3.75;;;3.45;;
1567;SDS011;777;47.156;8.326;2023-05-13T10:34:51;4.65;;;3.35;;
1567;SDS011;777;47.156;8.326;2023-05-13T10:40:25;3.95;;;3.58;;
1567;SDS011;777;47.156;8.326;2023-05-13T10:43:08;6.97;;;4.22;;
1567;SDS011;777;47.156;8.326;2023-05-13T10:45:39;7.53;;;4.20;;
1567;SDS011;777;47.156;8.326;2023-05-13T10:48:10;5.43;;;4.00;;
1567;SDS011;777;47.156;8.326;2023-05-13T10:50:38;4.68;;;3.70;;
1567;SDS011;777;47.156;8.326;2023-05-13T10:53:17;4.30;;;3.92;;
1567;SDS011;777;47.156;8.326;2023-05-13T10:55:49;5.32;;;3.92;;
1567;SDS011;777;47.156;8.326;2023-05-13T10:58:18;4.75;;;3.85;;
1567;SDS011;777;47.156;8.326;2023-05-13T11:00:50;6.28;;;4.97;;
1567;SDS011;777;47.156;8.326;2023-05-13T11:03:26;5.50;;;4.47;;
1567;SDS011;777;47.156;8.326;2023-05-13T11:05:58;5.45;;;4.95;;
1567;SDS011;777;47.156;8.326;2023-05-13T11:08:36;5.40;;;4.07;;
1567;SDS011;777;47.156;8.326;2023-05-13T11:11:15;4.68;;;4.28;;
1567;SDS011;777;47.156;8.326;2023-05-13T11:13:54;4.30;;;3.90;;
1567;SDS011;777;47.156;8.326;2023-05-13T11:16:32;4.88;;;4.18;;
1567;SDS011;777;47.156;8.326;2023-05-13T11:19:00;3.75;;;3.45;;
1567;SDS011;777;47.156;8.326;2023-05-13T11:21:29;4.07;;;3.67;;
1567;SDS011;777;47.156;8.326;2023-05-13T11:23:57;4.22;;;3.75;;
1567;SDS011;777;47.156;8.326;2023-05-13T11:26:40;3.83;;;3.53;;
1567;SDS011;777;47.156;8.326;2023-05-13T11:29:10;4.15;;;3.70;;
1567;SDS011;777;47.156;8.326;2023-05-13T11:31:42;5.20;;;4.25;;
1567;SDS011;777;47.156;8.326;2023-05-13T11:36:40;4.20;;;3.80;;
1567;SDS011;777;47.156;8.326;2023-05-13T11:39:10;4.00;;;3.22;;
1567;SDS011;777;47.156;8.326;2023-05-13T11:41:41;4.10;;;3.72;;
1567;SDS011;777;47.156;8.326;2023-05-13T11:44:09;3.85;;;3.20;;
1567;SDS011;777;47.156;8.326;2023-05-13T11:46:37;3.22;;;2.90;;
1567;SDS011;777;47.156;8.326;2023-05-13T11:49:28;3.80;;;3.50;;
1567;SDS011;777;47.156;8.326;2023-05-13T11:51:57;3.85;;;3.33;;
1567;SDS011;777;47.156;8.326;2023-05-13T11:54:24;3.92;;;3.00;;
1567;SDS011;777;47.156;8.326;2023-05-13T11:56:51;3.55;;;3.25;;
1567;SDS011;777;47.156;8.326;2023-05-13T11:59:19;3.60;;;3.30;;
1567;SDS011;777;47.156;8.326;2023-05-13T12:01:58;4.22;;;3.20;;
1567;SDS011;777;47.156;8.326;2023-05-13T12:04:28;3.70;;;3.40;;
1567;SDS011;777;47.156;8.326;2023-05-13T12:06:56;4.50;;;4.10;;
1567;SDS011;777;47.156;8.326;2023-05-13T12:09:23;3.67;;;3.38;;
1567;SDS011;777;47.156;8.326;2023-05-13T12:11:51;3.63;;;3.33;;
1567;SDS011;777;47.156;8.326;2023-05-13T12:14:19;3.95;;;3.00;;
1567;SDS011;777;47.156;8.326;2023-05-13T12:16:46;5.05;;;3.10;;
1567;SDS011;777;47.156;8.326;2023-05-13T12:19:15;3.75;;;2.80;;
1567;SDS011;777;47.156;8.326;2023-05-13T12:21:42;2.70;;;2.50;;
1567;SDS011;777;47.156;8.326;2023-05-13T12:24:15;4.00;;;2.80;;
1567;SDS011;777;47.156;8.326;2023-05-13T12:26:43;3.05;;;2.70;;
1567;SDS011;777;47.156;8.326;2023-05-13T12:29:10;4.22;;;3.05;;
1567;SDS011;777;47.156;8.326;2023-05-13T12:31:37;3.53;;;3.03;;
1567;SDS011;777;47.156;8.326;2023-05-13T12:34:05;4.28;;;3.75;;
1567;SDS011;777;47.156;8.326;2023-05-13T12:36:36;3.83;;;3.10;;
1567;SDS011;777;47.156;8.326;2023-05-13T12:39:04;3.50;;;3.20;;
1567;SDS011;777;47.156;8.326;2023-05-13T12:41:33;5.75;;;3.60;;
1567;SDS011;777;47.156;8.326;2023-05-13T12:44:02;3.47;;;3.17;;
1567;SDS011;777;47.156;8.326;2023-05-13T12:46:30;3.78;;;3.30;;
1567;SDS011;777;47.156;8.326;2023-05-13T12:48:58;3.90;;;2.95;;
1567;SDS011;777;47.156;8.326;2023-05-13T12:51:26;2.78;;;2.58;;
1567;SDS011;777;47.156;8.326;2023-05-13T12:53:55;3.70;;;3.20;;
1567;SDS011;777;47.156;8.326;2023-05-13T12:56:22;3.15;;;2.85;;
1567;SDS011;777;47.156;8.326;2023-05-13T12:58:51;2.85;;;2.65;;
1567;SDS011;777;47.156;8.326;2023-05-13T13:01:19;4.57;;;3.60;;
1567;SDS011;777;47.156;8.326;2023-05-13T13:03:47;3.72;;;3.40;;
1567;SDS011;777;47.156;8.326;2023-05-13T13:06:14;4.05;;;3.10;;
1567;SDS011;777;47.156;8.326;2023-05-13T13:08:41;4.20;;;3.45;;
1567;SDS011;777;47.156;8.326;2023-05-13T13:11:09;3.08;;;2.78;;
1567;SDS011;777;47.156;8.326;2023-05-13T13:13:39;3.22;;;2.92;;
1567;SDS011;777;47.156;8.326;2023-05-13T13:16:06;5.85;;;3.72;;
1567;SDS011;777;47.156;8.326;2023-05-13T13:18:34;3.95;;;3.58;;
1567;SDS011;777;47.156;8.326;2023-05-13T13:21:01;6.55;;;5.47;;
1567;SDS011;777;47.156;8.326;2023-05-13T13:23:29;5.07;;;4.40;;
1567;SDS011;777;47.156;8.326;2023-05-13T13:25:56;4.22;;;3.83;;
1567;SDS011;777;47.156;8.326;2023-05-13T13:28:25;4.88;;;4.40;;
1567;SDS011;777;47.156;8.326;2023-05-13T13:30:52;5.60;;;5.07;;
1567;SDS011;777;47.156;8.326;2023-05-13T13:33:19;6.35;;;5.80;;
1567;SDS011;777;47.156;8.326;2023-05-13T13:35:46;7.40;;;6.70;;
1567;SDS011;777;47.156;8.326;2023-05-13T13:38:14;6.95;;;6.35;;
1567;SDS011;777;47.156;8.326;2023-05-13T13:40:41;8.55;;;7.75;;
1567;SDS011;777;47.156;8.326;2023-05-13T13:43:08;9.70;;;8.80;;
1567;SDS011;777;47.156;8.326;2023-05-13T13:45:37;10.23;;;9.20;;
1567;SDS011;777;47.156;8.326;2023-05-13T13:48:05;10.65;;;9.68;;
1567;SDS011;777;47.156;8.326;2023-05-13T13:50:32;10.38;;;9.48;;
1567;SDS011;777;47.156;8.326;2023-05-13T13:52:59;10.02;;;9.13;;
1567;SDS011;777;47.156;8.326;2023-05-13T13:55:26;8.35;;;7.55;;
1567;SDS011;777;47.156;8.326;2023-05-13T13:57:53;8.88;;;7.97;;
1567;SDS011;777;47.156;8.326;2023-05-13T14:00:20;7.72;;;7.03;;
1567;SDS011;777;47.156;8.326;2023-05-13T14:02:48;9.10;;;7.53;;
1567;SDS011;777;47.156;8.326;2023-05-13T14:05:15;9.25;;;8.25;;
1567;SDS011;777;47.156;8.326;2023-05-13T14:07:43;8.48;;;7.63;;
1567;SDS011;777;47.156;8.326;2023-05-13T14:10:10;8.60;;;7.28;;
1567;SDS011;777;47.156;8.326;2023-05-13T14:12:37;8.55;;;7.43;;
1567;SDS011;777;47.156;8.326;2023-05-13T14:15:04;7.25;;;6.55;;
1567;SDS011;777;47.156;8.326;2023-05-13T14:17:32;9.40;;;6.07;;
1567;SDS011;777;47.156;8.326;2023-05-13T14:20:01;5.65;;;4.70;;
1567;SDS011;777;47.156;8.326;2023-05-13T14:22:28;5.43;;;4.93;;
1567;SDS011;777;47.156;8.326;2023-05-13T14:24:55;6.38;;;5.72;;
1567;SDS011;777;47.156;8.326;2023-05-13T14:27:22;9.20;;;6.50;;
1567;SDS011;777;47.156;8.326;2023-05-13T14:29:49;6.88;;;6.28;;
1567;SDS011;777;47.156;8.326;2023-05-13T14:32:16;8.15;;;7.35;;
1567;SDS011;777;47.156;8.326;2023-05-13T14:34:43;7.70;;;6.78;;
1567;SDS011;777;47.156;8.326;2023-05-13T14:37:11;6.60;;;6.03;;
1567;SDS011;777;47.156;8.326;2023-05-13T14:39:38;6.85;;;6.18;;
1567;SDS011;777;47.156;8.326;2023-05-13T14:42:05;7.40;;;6.80;;
1567;SDS011;777;47.156;8.326;2023-05-13T14:44:32;8.02;;;7.22;;
1567;SDS011;777;47.156;8.326;2023-05-13T14:47:00;8.00;;;7.20;;
1567;SDS011;777;47.156;8.326;2023-05-13T14:49:27;7.93;;;7.15;;
1567;SDS011;777;47.156;8.326;2023-05-13T14:51:54;7.50;;;6.80;;
1567;SDS011;777;47.156;8.326;2023-05-13T14:54:23;7.45;;;6.72;;
1567;SDS011;777;47.156;8.326;2023-05-13T14:56:50;7.30;;;6.65;;
1567;SDS011;777;47.156;8.326;2023-05-13T14:59:17;7.38;;;6.68;;
1567;SDS011;777;47.156;8.326;2023-05-13T15:01:44;5.95;;;5.45;;
1567;SDS011;777;47.156;8.326;2023-05-13T15:04:11;6.47;;;5.97;;
1567;SDS011;777;47.156;8.326;2023-05-13T15:06:38;5.90;;;5.40;;
1567;SDS011;777;47.156;8.326;2023-05-13T15:09:05;5.90;;;5.18;;
1567;SDS011;777;47.156;8.326;2023-05-13T15:11:34;5.60;;;5.13;;
1567;SDS011;777;47.156;8.326;2023-05-13T15:14:03;5.15;;;4.72;;
1567;SDS011;777;47.156;8.326;2023-05-13T15:16:30;6.53;;;5.93;;
1567;SDS011;777;47.156;8.326;2023-05-13T15:18:57;5.93;;;5.30;;
1567;SDS011;777;47.156;8.326;2023-05-13T15:21:24;5.90;;;5.00;;
1567;SDS011;777;47.156;8.326;2023-05-13T15:23:51;5.90;;;5.40;;
1567;SDS011;777;47.156;8.326;2023-05-13T15:26:18;6.57;;;5.47;;
1567;SDS011;777;47.156;8.326;2023-05-13T15:28:47;5.68;;;5.18;;
1567;SDS011;777;47.156;8.326;2023-05-13T15:31:14;5.35;;;4.43;;
1567;SDS011;777;47.156;8.326;2023-05-13T15:33:41;5.70;;;5.10;;
1567;SDS011;777;47.156;8.326;2023-05-13T15:36:08;6.82;;;5.55;;